Time;durP1;ratioP1;P1;durP2;ratioP2;P2;SDS_P1;SDS_P2;PMS_P1;PMS_P2;Temp;Humidity;BMP_temperature;BMP_pressure;BME280_temperature;BME280_humidity;BME280_pressure;Samples;Min_cycle;Max_cycle;Signal;HPM_P1;HPM_P2
2021/12/14 00:02:11;;;;;;;15.43;11.17;;;;;;;5.76;93.46;96470.03;4391597;32;20326;-65
2021/12/14 00:04:37;;;;;;;16.60;11.67;;;;;;;5.75;93.05;96466.63;4390632;32;20280;-66
2021/12/14 00:07:10;;;;;;;14.67;10.50;;;;;;;5.49;94.19;96469.75;4393423;32;20331;-65
2021/12/14 00:09:40;;;;;;;14.50;10.37;;;;;;;5.34;95.54;96474.72;4388965;32;20295;-65
2021/12/14 00:15:10;;;;;;;16.83;10.77;;;;;;;5.34;95.57;96477.34;4391460;32;20291;-66
2021/12/14 00:17:43;;;;;;;14.43;9.90;;;;;;;5.63;94.43;96465.03;4389567;32;20292;-65
2021/12/14 00:20:26;;;;;;;12.80;8.13;;;;;;;5.82;93.25;96462.00;4388836;32;20372;-65
2021/12/14 00:25:35;;;;;;;10.30;7.50;;;;;;;5.50;93.92;96458.22;4385619;32;20386;-65
2021/12/14 00:28:06;;;;;;;8.63;7.30;;;;;;;5.31;94.51;96454.94;4388490;32;20324;-64
2021/12/14 00:30:33;;;;;;;20.10;7.80;;;;;;;5.23;94.24;96460.53;4390042;32;20294;-65
2021/12/14 00:32:59;;;;;;;9.10;7.47;;;;;;;4.52;96.32;96461.59;4386880;32;20291;-65
2021/12/14 00:35:25;;;;;;;11.37;8.10;;;;;;;4.72;97.26;96462.06;4374716;32;20328;-65
2021/12/14 00:37:53;;;;;;;13.90;7.97;;;;;;;4.67;97.11;96459.31;4383639;32;20291;-65
2021/12/14 00:40:29;;;;;;;13.40;8.77;;;;;;;4.80;96.68;96460.91;4390161;32;20210;-65
2021/12/14 00:42:55;;;;;;;10.00;8.23;;;;;;;4.76;96.62;96463.22;4386012;32;20359;-65
2021/12/14 00:45:24;;;;;;;9.23;7.37;;;;;;;4.67;96.80;96464.56;4390935;32;20322;-65
2021/12/14 00:47:50;;;;;;;13.20;7.23;;;;;;;5.05;95.68;96466.75;4378530;32;20300;-65
2021/12/14 00:50:18;;;;;;;11.87;6.63;;;;;;;5.21;94.17;96459.16;4389947;32;20295;-65
2021/12/14 00:52:44;;;;;;;8.30;6.77;;;;;;;5.29;92.77;96467.50;4390484;32;20242;-65
2021/12/14 00:55:12;;;;;;;9.10;6.80;;;;;;;5.35;92.31;96474.50;4388332;32;20272;-65
2021/12/14 00:57:38;;;;;;;7.57;6.73;;;;;;;5.36;92.23;96480.56;4390944;32;20242;-65
2021/12/14 01:00:15;;;;;;;7.67;6.90;;;;;;;5.16;92.58;96475.66;4392443;32;20280;-65
2021/12/14 01:02:41;;;;;;;7.07;6.30;;;;;;;5.30;91.88;96460.41;4388957;32;20204;-64
2021/12/14 01:05:16;;;;;;;6.63;6.00;;;;;;;5.28;91.88;96462.47;4390217;32;20284;-65
2021/12/14 01:07:43;;;;;;;8.20;5.63;;;;;;;4.72;93.66;96467.31;4389436;32;20267;-65
2021/12/14 01:10:45;;;;;;;14.43;6.73;;;;;;;4.95;93.76;96463.09;4388397;32;20342;-65
2021/12/14 01:13:11;;;;;;;6.90;5.93;;;;;;;4.81;93.30;96457.25;4386827;32;20291;-64
2021/12/14 01:16:00;;;;;;;6.97;6.30;;;;;;;4.98;93.80;96460.00;4390885;32;20280;-64
2021/12/14 01:21:19;;;;;;;8.47;6.00;;;;;;;5.23;92.28;96457.09;4388696;32;20302;-65
2021/12/14 01:23:45;;;;;;;9.90;5.80;;;;;;;5.17;91.63;96459.66;4384114;32;20281;-64
2021/12/14 01:26:17;;;;;;;31.73;6.67;;;;;;;5.00;92.56;96464.00;4388277;32;20307;-64
2021/12/14 01:28:45;;;;;;;15.97;6.37;;;;;;;4.11;94.85;96457.97;4388799;32;20307;-65
2021/12/14 01:31:23;;;;;;;13.60;6.63;;;;;;;4.11;96.94;96470.28;4389390;32;20294;-65
2021/12/14 01:33:55;;;;;;;12.67;7.07;;;;;;;4.39;96.29;96472.28;4389571;32;20412;-65
2021/12/14 01:36:39;;;;;;;21.37;6.03;;;;;;;4.22;95.98;96477.38;4384270;32;20287;-65
2021/12/14 01:42:20;;;;;;;8.50;5.70;;;;;;;4.21;95.98;96475.78;4400667;32;20377;-65
2021/12/14 01:44:51;;;;;;;9.77;5.67;;;;;;;4.24;96.60;96485.84;4389252;32;20290;-64
2021/12/14 01:47:40;;;;;;;10.63;5.47;;;;;;;4.47;95.01;96496.41;4400787;32;20289;-64
2021/12/14 01:50:11;;;;;;;6.53;5.97;;;;;;;4.14;94.98;96502.16;4400601;32;20276;-65
2021/12/14 01:52:37;;;;;;;7.67;5.90;;;;;;;4.26;95.39;96493.50;4390078;32;20283;-64
2021/12/14 01:55:25;;;;;;;6.83;5.20;;;;;;;4.49;94.27;96483.84;4407311;32;20279;-64
2021/12/14 01:57:55;;;;;;;6.97;4.87;;;;;;;4.49;94.30;96489.09;4403197;32;20248;-64
2021/12/14 02:00:32;;;;;;;5.23;4.83;;;;;;;4.66;93.55;96483.97;4405408;32;20276;-64
2021/12/14 02:02:58;;;;;;;4.33;4.03;;;;;;;4.77;92.75;96480.59;4391653;32;20299;-64
2021/12/14 02:05:31;;;;;;;4.40;4.00;;;;;;;4.92;91.41;96488.00;4390941;32;20302;-64
2021/12/14 02:07:59;;;;;;;4.23;3.93;;;;;;;4.87;91.29;96481.81;4400849;32;20188;-64
2021/12/14 02:10:37;;;;;;;4.40;4.00;;;;;;;4.94;90.93;96474.63;4391477;32;20371;-64
2021/12/14 02:13:04;;;;;;;4.10;3.70;;;;;;;4.80;90.45;96481.94;4404311;32;20279;-64
2021/12/14 02:15:33;;;;;;;3.90;3.60;;;;;;;4.58;91.67;96478.25;4405531;32;20275;-65
2021/12/14 02:18:02;;;;;;;3.03;2.80;;;;;;;4.22;92.88;96489.72;4396028;32;20317;-65
2021/12/14 02:20:33;;;;;;;3.60;3.30;;;;;;;4.50;91.05;96495.16;4405746;32;20301;-65
2021/12/14 02:23:00;;;;;;;3.53;3.33;;;;;;;4.49;91.25;96497.00;4394133;32;20275;-64
2021/12/14 02:25:25;;;;;;;5.40;3.23;;;;;;;4.43;91.18;96494.44;4394088;32;20306;-64
2021/12/14 02:27:53;;;;;;;3.97;3.67;;;;;;;4.13;92.40;96492.66;4391785;32;20288;-65
2021/12/14 02:30:27;;;;;;;3.67;3.37;;;;;;;4.41;91.45;96491.25;4397082;32;20227;-65
2021/12/14 02:32:54;;;;;;;3.23;2.93;;;;;;;3.88;92.98;96494.63;4400458;32;20275;-64
2021/12/14 02:35:23;;;;;;;5.33;2.77;;;;;;;3.88;93.63;96493.81;4407663;32;20327;-64
2021/12/14 02:37:58;;;;;;;3.07;2.83;;;;;;;4.23;91.90;96484.25;4407701;32;20338;-65
2021/12/14 02:40:53;;;;;;;3.00;2.80;;;;;;;3.95;92.42;96482.19;4406965;32;20279;-64
2021/12/14 02:43:11;;;;;;;2.83;2.63;;;;;;;4.01;92.27;96478.69;4407770;32;20317;-65
2021/12/14 02:45:37;;;;;;;3.43;2.90;;;;;;;3.86;92.40;96480.91;4407765;32;20280;-65
2021/12/14 02:48:08;;;;;;;3.03;2.83;;;;;;;3.95;91.83;96484.03;4383874;32;20192;-64
2021/12/14 02:50:34;;;;;;;3.20;3.00;;;;;;;3.88;92.34;96473.63;4408215;32;20340;-64
2021/12/14 02:53:00;;;;;;;3.00;2.80;;;;;;;4.18;91.84;96472.78;4393722;32;20293;-64
2021/12/14 02:55:26;;;;;;;2.80;2.60;;;;;;;3.95;91.92;96469.06;4400419;32;20199;-64
2021/12/14 02:57:59;;;;;;;3.23;3.00;;;;;;;4.24;91.91;96466.66;4391738;32;20242;-64
2021/12/14 03:00:42;;;;;;;3.27;3.07;;;;;;;4.36;90.86;96467.50;4405214;32;20374;-65
2021/12/14 03:03:09;;;;;;;3.60;3.30;;;;;;;4.53;90.40;96472.91;4392192;32;20283;-65
2021/12/14 03:05:39;;;;;;;4.77;3.30;;;;;;;4.51;90.19;96467.06;4393460;32;20280;-65
2021/12/14 03:08:09;;;;;;;6.33;3.20;;;;;;;4.61;90.20;96460.22;4395157;32;20290;-64
2021/12/14 03:13:38;;;;;;;3.50;3.20;;;;;;;4.30;91.37;96460.50;4353747;32;20302;-64
2021/12/14 03:16:09;;;;;;;6.23;3.47;;;;;;;4.42;90.83;96456.06;4408041;32;20284;-64
2021/12/14 03:18:39;;;;;;;5.47;3.40;;;;;;;4.17;91.90;96463.31;4399044;32;20279;-65
2021/12/14 03:21:06;;;;;;;11.57;3.47;;;;;;;4.40;90.98;96458.13;4394572;32;20268;-65
2021/12/14 03:23:38;;;;;;;10.53;3.40;;;;;;;4.21;91.48;96464.47;4407905;32;20305;-65
2021/12/14 03:26:08;;;;;;;3.60;3.30;;;;;;;4.27;91.31;96463.59;4406746;32;20302;-65
2021/12/14 03:28:35;;;;;;;16.93;3.73;;;;;;;4.19;91.69;96461.28;4393239;32;20339;-65
2021/12/14 03:31:09;;;;;;;11.83;3.87;;;;;;;4.03;92.61;96474.03;4404428;32;20276;-64
2021/12/14 03:33:51;;;;;;;14.53;3.60;;;;;;;4.29;91.68;96478.09;4391811;32;20319;-64
2021/12/14 03:36:22;;;;;;;13.13;3.53;;;;;;;4.21;91.39;96469.72;4406530;32;20306;-63
2021/12/14 03:38:57;;;;;;;8.37;3.67;;;;;;;3.96;92.98;96473.28;4393205;32;20280;-63
2021/12/14 03:41:35;;;;;;;8.27;3.23;;;;;;;4.27;91.76;96474.09;4394445;32;20344;-63
2021/12/14 03:44:07;;;;;;;6.43;3.20;;;;;;;4.32;91.58;96471.59;4393601;32;20271;-64
2021/12/14 03:46:39;;;;;;;10.13;3.97;;;;;;;4.14;92.01;96468.03;4392431;32;20299;-64
2021/12/14 03:49:06;;;;;;;3.60;3.30;;;;;;;3.82;93.20;96469.25;4407070;32;20271;-64
2021/12/14 03:51:31;;;;;;;3.37;3.00;;;;;;;3.93;93.39;96460.66;4407548;32;20280;-64
2021/12/14 03:53:57;;;;;;;9.03;3.00;;;;;;;3.97;92.86;96458.34;4392590;32;20325;-63
2021/12/14 03:56:24;;;;;;;10.97;3.67;;;;;;;4.14;91.91;96465.41;4391843;32;20188;-63
2021/12/14 03:58:50;;;;;;;9.47;3.47;;;;;;;4.22;91.50;96460.81;4388517;32;20318;-63
2021/12/14 04:01:22;;;;;;;8.73;2.83;;;;;;;4.14;91.26;96464.59;4391916;32;20287;-63
2021/12/14 04:03:51;;;;;;;9.77;2.97;;;;;;;3.99;91.70;96478.09;4385765;32;20331;-62
2021/12/14 04:06:18;;;;;;;12.13;3.47;;;;;;;3.89;92.37;96474.44;4406245;32;20283;-63
2021/12/14 04:08:46;;;;;;;8.87;3.10;;;;;;;3.79;93.23;96477.56;4384152;32;20284;-63
2021/12/14 04:11:13;;;;;;;14.83;3.57;;;;;;;3.95;92.75;96465.66;4392682;32;20288;-63
2021/12/14 04:13:43;;;;;;;10.53;3.30;;;;;;;3.74;93.45;96459.09;4395649;32;20336;-64
2021/12/14 04:16:12;;;;;;;13.03;3.53;;;;;;;3.84;93.31;96463.78;4406285;32;20287;-63
2021/12/14 04:18:38;;;;;;;7.67;3.00;;;;;;;3.93;93.21;96462.47;4401468;32;20298;-63
2021/12/14 04:21:07;;;;;;;6.17;3.07;;;;;;;3.95;93.37;96463.81;4394462;32;20280;-64
2021/12/14 04:23:40;;;;;;;5.23;3.10;;;;;;;4.12;92.81;96462.19;4392003;32;20202;-63
2021/12/14 04:26:08;;;;;;;9.73;3.30;;;;;;;3.90;93.07;96463.72;4402663;32;20287;-64
2021/12/14 04:28:41;;;;;;;4.00;3.70;;;;;;;4.04;93.29;96459.88;4407744;32;20294;-64
2021/12/14 04:31:07;;;;;;;3.73;3.37;;;;;;;3.95;93.81;96461.19;4388622;32;20294;-64
2021/12/14 04:33:36;;;;;;;3.40;3.10;;;;;;;4.23;92.93;96455.34;4380557;32;20281;-63
2021/12/14 04:36:07;;;;;;;4.00;3.60;;;;;;;4.17;92.95;96452.81;4402810;32;20202;-63
2021/12/14 04:38:41;;;;;;;3.80;3.40;;;;;;;4.08;93.29;96458.41;4392428;32;20272;-63
2021/12/14 04:54:23;;;;;;;3.00;2.80;;;;;;;4.33;91.21;96431.19;4406143;32;20283;-63
2021/12/14 04:56:49;;;;;;;2.77;2.50;;;;;;;4.12;91.96;96422.81;4392769;32;20324;-63
2021/12/14 04:59:19;;;;;;;2.50;2.30;;;;;;;4.45;90.92;96424.09;4406146;32;20299;-64
2021/12/14 05:01:48;;;;;;;2.57;2.37;;;;;;;4.25;90.49;96423.63;4405854;32;20199;-63
2021/12/14 05:04:19;;;;;;;2.33;2.13;;;;;;;4.41;89.78;96430.81;4390384;32;20296;-63
2021/12/14 05:06:55;;;;;;;1.97;1.87;;;;;;;3.98;91.23;96428.44;4389459;32;20288;-64
2021/12/14 05:09:28;;;;;;;1.50;1.40;;;;;;;4.07;90.76;96438.41;4390917;32;20275;-64
2021/12/14 05:12:08;;;;;;;1.67;1.57;;;;;;;3.68;91.24;96445.03;4392728;32;20280;-63
2021/12/14 05:14:35;;;;;;;1.57;1.47;;;;;;;3.44;92.49;96438.06;4397770;32;20287;-64
2021/12/14 05:17:06;;;;;;;1.90;1.80;;;;;;;3.75;91.98;96437.03;4393784;32;20288;-64
2021/12/14 05:19:36;;;;;;;2.23;2.03;;;;;;;3.67;91.50;96434.75;4406115;32;20275;-64
2021/12/14 05:22:09;;;;;;;2.40;2.17;;;;;;;3.84;91.47;96440.97;4404774;32;20283;-64
2021/12/14 05:24:38;;;;;;;2.00;1.90;;;;;;;3.88;91.01;96436.88;4395001;32;20295;-64
2021/12/14 05:27:06;;;;;;;1.70;1.60;;;;;;;4.00;90.15;96436.91;4405055;32;20279;-63
2021/12/14 05:29:32;;;;;;;2.00;1.90;;;;;;;3.78;91.03;96441.84;4391929;32;20275;-64
2021/12/14 05:32:01;;;;;;;1.77;1.67;;;;;;;3.84;91.08;96448.84;4391634;32;20345;-63
2021/12/14 05:34:29;;;;;;;2.03;1.93;;;;;;;3.70;91.36;96450.06;4391901;32;20316;-64
2021/12/14 05:36:55;;;;;;;1.90;1.80;;;;;;;3.46;91.57;96446.50;4389432;32;20283;-64
2021/12/14 05:39:44;;;;;;;1.97;1.87;;;;;;;3.31;92.73;96443.47;4404039;32;20313;-64
2021/12/14 05:44:40;;;;;;;2.30;2.20;;;;;;;3.23;93.34;96441.94;4405380;32;20283;-64
2021/12/14 05:47:10;;;;;;;2.80;1.97;;;;;;;3.16;93.80;96435.16;4385338;32;20333;-62
2021/12/14 05:49:38;;;;;;;1.80;1.70;;;;;;;3.12;94.19;96436.63;4391236;32;20334;-63
2021/12/14 05:52:12;;;;;;;2.20;2.10;;;;;;;3.35;93.74;96437.53;4406766;32;20268;-63
2021/12/14 05:54:39;;;;;;;2.30;2.13;;;;;;;3.52;93.10;96426.47;4391246;32;20298;-63
2021/12/14 05:57:07;;;;;;;1.80;1.70;;;;;;;3.61;92.02;96425.94;4410164;32;20267;-63
2021/12/14 05:59:34;;;;;;;2.60;2.37;;;;;;;3.65;92.23;96423.66;4408504;32;20283;-65
2021/12/14 06:02:03;;;;;;;3.77;2.73;;;;;;;3.65;91.65;96418.41;4408551;32;20363;-65
2021/12/14 06:04:34;;;;;;;2.50;2.30;;;;;;;3.86;90.78;96420.56;4408434;32;20305;-64
2021/12/14 06:07:00;;;;;;;2.97;2.77;;;;;;;3.86;90.33;96420.56;4395633;32;20280;-65
2021/12/14 06:09:29;;;;;;;2.80;2.60;;;;;;;3.74;90.28;96420.50;4393949;32;20290;-65
2021/12/14 06:12:08;;;;;;;2.77;2.53;;;;;;;3.84;90.64;96422.59;4408424;32;22348;-65
2021/12/14 06:14:41;;;;;;;7.23;2.77;;;;;;;3.68;90.97;96424.03;4406318;32;20294;-65
2021/12/14 06:17:06;;;;;;;2.73;2.53;;;;;;;3.55;91.59;96420.75;4399226;32;20306;-66
2021/12/14 06:19:38;;;;;;;2.90;2.70;;;;;;;3.68;91.63;96416.16;4388186;32;20272;-65
2021/12/14 06:22:09;;;;;;;3.00;2.80;;;;;;;3.42;91.90;96409.44;4394660;32;20259;-65
2021/12/14 06:24:38;;;;;;;3.27;2.40;;;;;;;3.50;91.91;96410.16;4405677;32;20279;-65
2021/12/14 06:27:08;;;;;;;2.90;2.70;;;;;;;3.64;91.29;96406.31;4408888;32;20290;-65
2021/12/14 06:29:40;;;;;;;3.03;2.77;;;;;;;3.66;90.96;96399.03;4408666;32;20272;-65
2021/12/14 06:32:12;;;;;;;2.83;2.63;;;;;;;3.64;90.42;96409.75;4406525;32;20276;-66
2021/12/14 06:34:47;;;;;;;2.13;2.03;;;;;;;3.74;90.17;96403.97;4393015;32;20279;-65
2021/12/14 06:38:06;;;;;;;2.80;2.60;;;;;;;3.73;90.13;96395.31;4393465;32;20287;-65
2021/12/14 06:40:40;;;;;;;2.77;2.57;;;;;;;3.69;90.62;96399.41;4402024;32;20288;-65
2021/12/14 06:43:11;;;;;;;2.60;2.50;;;;;;;3.96;89.45;96397.19;4405009;32;20322;-65
2021/12/14 06:45:43;;;;;;;2.40;2.20;;;;;;;3.78;89.75;96398.03;4393564;32;20283;-65
2021/12/14 06:48:20;;;;;;;2.77;2.57;;;;;;;3.97;89.15;96401.41;4394011;32;20298;-66
2021/12/14 06:51:00;;;;;;;4.33;2.83;;;;;;;4.00;89.02;96395.72;4407515;32;20271;-66
2021/12/14 06:53:29;;;;;;;2.80;2.60;;;;;;;3.72;89.84;96390.28;4407905;32;20387;-65
2021/12/14 06:55:57;;;;;;;2.47;2.27;;;;;;;3.86;89.60;96391.69;4391359;32;21465;-65
2021/12/14 06:58:25;;;;;;;2.17;2.03;;;;;;;3.93;89.45;96381.91;4389367;32;20351;-65
2021/12/14 07:01:10;;;;;;;2.67;2.47;;;;;;;3.93;89.74;96381.91;4392691;32;20288;-65
2021/12/14 07:03:52;;;;;;;2.23;2.13;;;;;;;3.83;89.74;96378.22;4392010;32;20287;-66
2021/12/14 07:06:31;;;;;;;3.00;2.70;;;;;;;4.00;89.23;96379.16;4403011;32;20271;-65
2021/12/14 07:09:11;;;;;;;2.47;2.37;;;;;;;3.71;90.09;96386.06;4399775;32;20283;-65
2021/12/14 07:11:40;;;;;;;2.17;2.07;;;;;;;3.94;89.65;96386.13;4388990;32;20280;-66
2021/12/14 07:14:29;;;;;;;2.30;2.07;;;;;;;4.05;89.08;96389.78;4391020;32;20275;-65
2021/12/14 07:16:57;;;;;;;2.30;2.10;;;;;;;4.11;88.57;96387.06;4405723;32;20336;-64
2021/12/14 07:19:39;;;;;;;8.50;7.73;;;;;;;3.86;89.38;96386.44;4392656;32;20278;-64
2021/12/14 07:22:05;;;;;;;7.53;6.77;;;;;;;4.08;89.05;96379.63;4395835;32;20321;-64
2021/12/14 07:24:34;;;;;;;4.03;2.47;;;;;;;4.17;88.70;96381.91;4393936;32;20366;-64
2021/12/14 07:27:23;;;;;;;20.77;3.90;;;;;;;3.80;90.04;96388.13;4392907;32;20198;-63
2021/12/14 07:29:50;;;;;;;17.80;3.23;;;;;;;4.89;98.91;96390.41;4404748;32;20306;-63
2021/12/14 07:32:36;;;;;;;12.27;3.73;;;;;;;5.60;100.00;96378.66;4392979;32;20298;-64
2021/12/14 07:35:24;;;;;;;4.87;2.43;;;;;;;6.02;96.14;96379.19;4393784;32;20289;-64
2021/12/14 07:37:51;;;;;;;1.97;1.73;;;;;;;6.22;93.15;96382.16;4406268;32;20356;-64
2021/12/14 07:40:18;;;;;;;5.63;1.53;;;;;;;6.73;90.15;96378.41;4393277;32;20279;-64
2021/12/14 07:42:44;;;;;;;2.20;2.00;;;;;;;6.62;86.52;96384.59;4404299;32;20295;-64
2021/12/14 07:45:22;;;;;;;1.93;1.37;;;;;;;6.82;87.56;96384.09;4405137;32;20368;-64
2021/12/14 07:47:54;;;;;;;2.63;1.30;;;;;;;6.83;83.07;96393.59;4388623;32;20302;-64
2021/12/14 07:50:35;;;;;;;1.43;1.20;;;;;;;7.05;84.64;96398.91;4392541;32;20307;-64
2021/12/14 07:53:00;;;;;;;1.83;1.40;;;;;;;7.13;81.58;96404.56;4393364;32;20295;-64
2021/12/14 07:55:27;;;;;;;1.47;1.37;;;;;;;7.20;81.64;96414.94;4392713;32;20317;-65
2021/12/14 07:57:52;;;;;;;1.50;1.40;;;;;;;7.00;80.23;96420.75;4392209;32;20188;-64
2021/12/14 08:00:24;;;;;;;1.53;1.43;;;;;;;6.96;81.60;96419.63;4392635;32;20472;-64
2021/12/14 08:02:55;;;;;;;3.33;1.70;;;;;;;7.10;80.53;96428.78;4406628;32;20263;-64
2021/12/14 08:05:27;;;;;;;1.53;1.43;;;;;;;7.12;81.57;96423.25;4407168;32;20284;-64
2021/12/14 08:08:08;;;;;;;1.70;1.50;;;;;;;7.24;81.04;96427.41;4406483;32;20386;-64
2021/12/14 08:10:41;;;;;;;1.80;1.70;;;;;;;7.22;79.71;96429.47;4406462;32;20283;-64
2021/12/14 08:13:09;;;;;;;1.23;1.20;;;;;;;7.27;80.48;96425.31;4389622;32;20276;-64
2021/12/14 08:15:47;;;;;;;1.90;1.30;;;;;;;7.35;80.46;96428.31;4407694;32;20286;-64
2021/12/14 08:18:14;;;;;;;2.00;1.70;;;;;;;7.32;79.94;96428.00;4404545;32;20291;-65
2021/12/14 08:21:00;;;;;;;3.90;2.20;;;;;;;7.34;80.94;96424.06;4392475;32;20390;-64
2021/12/14 08:23:32;;;;;;;1.70;1.60;;;;;;;7.51;80.89;96422.16;4380010;32;20373;-64
2021/12/14 08:26:26;;;;;;;1.90;1.80;;;;;;;7.65;79.21;96421.81;4405987;32;20294;-64
2021/12/14 08:28:54;;;;;;;2.83;2.33;;;;;;;7.53;79.60;96420.09;4406194;32;20275;-64
2021/12/14 08:31:22;;;;;;;2.40;2.20;;;;;;;7.37;79.68;96428.88;4406461;32;20324;-64
2021/12/14 08:33:56;;;;;;;2.37;2.10;;;;;;;7.41;79.31;96421.25;4406447;32;20290;-65
2021/12/14 08:36:22;;;;;;;2.37;1.93;;;;;;;7.29;78.88;96408.16;4391221;32;20323;-65
2021/12/14 08:38:59;;;;;;;1.90;1.70;;;;;;;7.39;78.34;96413.59;4392114;32;20353;-65
2021/12/14 08:41:26;;;;;;;2.00;1.63;;;;;;;7.45;77.78;96423.19;4392460;32;20206;-65
2021/12/14 08:43:54;;;;;;;2.50;1.87;;;;;;;7.63;78.12;96421.25;4405717;32;20298;-65
2021/12/14 08:46:27;;;;;;;2.00;1.90;;;;;;;7.95;76.80;96422.12;4396420;32;20289;-65
2021/12/14 08:48:57;;;;;;;2.27;2.10;;;;;;;8.04;76.40;96431.22;4390370;32;20284;-65
2021/12/14 08:51:30;;;;;;;1.90;1.80;;;;;;;7.93;75.32;96432.13;4405592;32;20275;-65
2021/12/14 08:54:11;;;;;;;2.27;2.17;;;;;;;7.73;76.56;96434.56;4391640;32;20453;-65
2021/12/14 08:56:46;;;;;;;4.20;2.60;;;;;;;7.74;77.26;96425.59;4388380;32;20388;-66
2021/12/14 08:59:12;;;;;;;2.37;2.27;;;;;;;7.16;76.37;96421.72;4404309;32;20306;-67
2021/12/14 09:01:40;;;;;;;2.40;2.20;;;;;;;6.42;80.26;96415.94;4392545;32;20291;-67
2021/12/14 09:04:13;;;;;;;2.80;2.60;;;;;;;6.09;81.60;96408.78;4402381;32;20206;-66
2021/12/14 09:06:42;;;;;;;3.63;3.33;;;;;;;5.94;83.21;96408.53;4405584;32;20321;-67
2021/12/14 09:09:12;;;;;;;4.57;3.07;;;;;;;5.65;85.15;96403.22;4405042;32;20275;-66
2021/12/14 09:11:40;;;;;;;4.00;3.40;;;;;;;5.59;85.59;96396.28;4384716;32;20284;-61
2021/12/14 09:14:13;;;;;;;2.67;2.47;;;;;;;5.87;86.28;96398.91;4385490;32;20294;-65
2021/12/14 09:16:41;;;;;;;2.70;2.50;;;;;;;6.22;84.18;96397.16;4391224;32;20312;-63
2021/12/14 09:19:20;;;;;;;5.17;2.70;;;;;;;6.40;82.91;96400.34;4405365;32;20302;-66
2021/12/14 09:21:51;;;;;;;3.80;2.73;;;;;;;6.46;82.63;96401.22;4388867;32;20359;-66
2021/12/14 09:24:21;;;;;;;3.13;2.80;;;;;;;6.98;81.02;96400.91;4405293;32;20287;-64
2021/12/14 09:26:52;;;;;;;2.87;2.67;;;;;;;6.98;81.01;96387.72;4391309;32;20288;-66
2021/12/14 09:29:21;;;;;;;4.20;2.80;;;;;;;7.21;80.71;96374.31;4385844;32;20280;-63
2021/12/14 09:31:49;;;;;;;6.93;3.00;;;;;;;7.17;80.21;96362.66;4381923;32;20305;-62
2021/12/14 09:34:17;;;;;;;3.00;2.80;;;;;;;7.72;78.74;96359.81;4394127;32;20212;-63
2021/12/14 09:36:45;;;;;;;3.67;2.60;;;;;;;7.34;78.75;96363.38;4394936;32;20288;-64
2021/12/14 09:39:17;;;;;;;3.47;2.80;;;;;;;7.36;79.00;96368.41;4393386;32;20364;-62
2021/12/14 09:41:53;;;;;;;4.30;2.83;;;;;;;6.82;81.09;96376.19;4394676;32;20311;-60
2021/12/14 09:44:20;;;;;;;10.00;3.00;;;;;;;6.75;81.51;96370.28;4401381;32;20274;-65
2021/12/14 09:46:46;;;;;;;2.77;2.50;;;;;;;6.60;82.62;96356.88;4383293;32;20298;-63
2021/12/14 09:49:12;;;;;;;4.20;2.63;;;;;;;6.62;83.03;96352.16;4390993;32;20368;-65
2021/12/14 09:52:09;;;;;;;4.43;2.50;;;;;;;6.52;83.90;96347.53;4408265;32;20336;-65
2021/12/14 09:54:35;;;;;;;2.80;2.53;;;;;;;6.83;83.19;96341.66;4385197;32;20287;-67
2021/12/14 09:57:14;;;;;;;5.37;3.17;;;;;;;6.64;84.13;96345.62;4394505;32;20298;-64
2021/12/14 09:59:41;;;;;;;2.43;2.33;;;;;;;6.69;84.14;96344.88;4407129;32;20225;-63
2021/12/14 10:02:19;;;;;;;2.07;1.97;;;;;;;6.93;84.07;96335.69;4394863;32;20286;-62
2021/12/14 10:04:50;;;;;;;2.17;1.70;;;;;;;6.86;84.49;96340.34;4402241;32;20283;-65
2021/12/14 10:07:17;;;;;;;2.17;2.00;;;;;;;6.92;84.53;96351.78;4392481;32;20338;-61
2021/12/14 10:09:47;;;;;;;2.50;2.30;;;;;;;6.98;84.61;96353.44;4405360;32;20290;-63
2021/12/14 10:14:52;;;;;;;2.03;1.67;;;;;;;7.31;83.38;96368.34;4405591;32;20310;-64
2021/12/14 10:17:20;;;;;;;1.77;1.67;;;;;;;7.20;83.74;96362.97;4407925;32;20336;-64
2021/12/14 10:19:47;;;;;;;2.17;2.07;;;;;;;7.41;82.86;96368.47;4388832;32;20283;-64
2021/12/14 10:22:23;;;;;;;2.00;1.90;;;;;;;7.42;83.29;96356.88;4394280;32;20332;-64
2021/12/14 10:24:54;;;;;;;2.80;1.97;;;;;;;7.37;83.59;96352.31;4406779;32;20274;-65
2021/12/14 10:27:22;;;;;;;2.23;2.07;;;;;;;7.27;84.32;96354.06;4395138;32;20284;-63
2021/12/14 10:29:48;;;;;;;2.73;2.23;;;;;;;7.50;83.48;96357.22;4408805;32;20276;-61
2021/12/14 10:32:20;;;;;;;2.60;2.10;;;;;;;7.50;83.54;96357.22;4394464;32;20275;-64
2021/12/14 10:34:50;;;;;;;2.00;1.90;;;;;;;7.50;83.49;96359.06;4393665;32;20180;-61
2021/12/14 10:37:24;;;;;;;3.60;2.30;;;;;;;7.63;83.56;96363.16;4393850;32;20283;-65
2021/12/14 10:42:53;;;;;;;2.47;1.93;;;;;;;7.55;84.31;96359.13;4391132;32;20291;-61
2021/12/14 10:45:22;;;;;;;1.80;1.70;;;;;;;7.70;84.29;96350.53;4380581;32;20285;-65
2021/12/14 10:47:48;;;;;;;1.80;1.70;;;;;;;7.82;83.83;96357.28;4379518;32;20363;-61
2021/12/14 10:50:21;;;;;;;2.07;1.97;;;;;;;7.73;83.70;96344.75;4397257;32;20298;-62
2021/12/14 10:52:47;;;;;;;2.20;1.97;;;;;;;7.96;83.43;96351.59;4392710;32;20180;-61
2021/12/14 10:55:20;;;;;;;1.90;1.80;;;;;;;7.89;83.85;96351.81;4384614;32;20302;-63
2021/12/14 10:57:47;;;;;;;2.67;2.10;;;;;;;8.03;83.62;96354.84;4391230;32;20188;-62
2021/12/14 11:00:36;;;;;;;2.07;1.97;;;;;;;7.84;83.06;96351.75;4397351;32;20332;-62
2021/12/14 11:03:07;;;;;;;2.67;1.47;;;;;;;7.84;84.05;96357.03;4390733;32;20321;-62
2021/12/14 11:05:34;;;;;;;1.90;1.80;;;;;;;7.93;83.81;96353.69;4391254;32;20288;-65
2021/12/14 11:08:01;;;;;;;2.27;2.07;;;;;;;7.86;83.76;96360.22;4392241;32;20370;-65
2021/12/14 11:10:36;;;;;;;3.70;2.17;;;;;;;8.00;84.15;96363.25;4391504;32;20281;-63
2021/12/14 11:13:09;;;;;;;2.37;2.27;;;;;;;8.08;83.92;96362.81;4393411;32;20290;-64
2021/12/14 11:15:49;;;;;;;4.00;2.53;;;;;;;8.04;83.81;96362.50;4391519;32;20295;-64
2021/12/14 11:18:19;;;;;;;2.67;2.20;;;;;;;8.01;83.23;96365.66;4389388;32;20343;-63
2021/12/14 11:21:07;;;;;;;4.93;2.27;;;;;;;8.07;83.14;96366.50;4390075;32;20269;-64
2021/12/14 11:23:42;;;;;;;3.23;2.67;;;;;;;7.89;82.76;96373.75;4396138;32;20351;-64
2021/12/14 11:26:14;;;;;;;5.27;2.50;;;;;;;7.92;82.89;96365.28;4384480;32;20268;-64
2021/12/14 11:28:51;;;;;;;2.93;2.60;;;;;;;7.87;83.68;96372.41;4385752;32;20352;-64
2021/12/14 11:31:35;;;;;;;3.20;2.93;;;;;;;8.02;82.48;96358.53;4390709;32;20271;-62
2021/12/14 11:34:07;;;;;;;3.50;3.03;;;;;;;8.07;82.52;96362.00;4391705;32;20272;-63
2021/12/14 11:36:44;;;;;;;4.57;3.33;;;;;;;8.09;82.67;96365.19;4387850;32;20284;-64
2021/12/14 11:39:18;;;;;;;6.73;3.17;;;;;;;8.17;81.72;96362.09;4387281;32;20288;-63
2021/12/14 11:41:56;;;;;;;6.70;2.97;;;;;;;8.23;81.47;96355.00;4390324;32;20374;-62
2021/12/14 11:44:41;;;;;;;5.63;2.93;;;;;;;7.94;82.47;96357.13;4383048;32;20390;-62
2021/12/14 11:49:55;;;;;;;2.13;2.03;;;;;;;8.19;81.33;96360.00;4389907;32;20288;-63
2021/12/14 11:52:54;;;;;;;2.40;2.20;;;;;;;7.86;81.86;96365.53;4378189;32;20335;-63
2021/12/14 11:55:38;;;;;;;2.67;2.27;;;;;;;7.94;81.67;96376.41;4389789;32;20288;-64
2021/12/14 11:58:33;;;;;;;6.57;4.20;;;;;;;7.70;82.57;96369.03;4385865;32;20296;-64
2021/12/14 12:01:08;;;;;;;3.23;2.63;;;;;;;7.80;82.85;96363.88;4374706;32;20369;-64
2021/12/14 12:03:33;;;;;;;4.67;2.37;;;;;;;7.82;83.08;96361.78;4380483;32;20275;-64
2021/12/14 12:09:28;;;;;;;2.23;2.13;;;;;;;7.92;82.93;96356.56;4388575;32;20302;-65
2021/12/14 12:09:31;;;;;;;2.67;2.10;;;;;;;7.97;82.27;96372.47;4378735;32;20184;-64
2021/12/14 12:12:03;;;;;;;2.97;2.00;;;;;;;8.03;82.56;96375.97;4385949;32;20280;-62
2021/12/14 12:14:36;;;;;;;3.63;2.30;;;;;;;7.99;82.60;96373.03;4389113;32;20280;-62
2021/12/14 12:17:30;;;;;;;2.77;2.27;;;;;;;7.83;83.20;96376.56;4403236;32;20292;-62
2021/12/14 12:20:00;;;;;;;3.00;2.70;;;;;;;8.15;81.77;96368.66;4402198;32;20359;-64
2021/12/14 12:22:32;;;;;;;2.50;2.40;;;;;;;8.12;81.49;96380.53;4389553;32;22529;-61
2021/12/14 12:24:59;;;;;;;2.40;2.30;;;;;;;8.08;81.63;96368.91;4380364;32;20318;-63
2021/12/14 12:27:33;;;;;;;2.70;2.50;;;;;;;8.16;82.14;96370.25;4389703;32;20284;-64
2021/12/14 12:32:55;;;;;;;2.60;2.40;;;;;;;8.24;81.12;96372.47;4378923;32;20296;-64
2021/12/14 12:35:41;;;;;;;2.60;2.40;;;;;;;8.35;81.08;96373.34;4391113;32;20376;-64
2021/12/14 12:38:23;;;;;;;2.70;2.60;;;;;;;8.23;81.37;96381.44;4375396;32;20291;-64
2021/12/14 12:40:53;;;;;;;2.97;2.77;;;;;;;8.26;80.58;96381.72;4380048;32;20307;-64
2021/12/14 12:43:33;;;;;;;3.03;2.80;;;;;;;8.12;81.32;96374.44;4390498;32;20273;-64
2021/12/14 12:46:09;;;;;;;3.30;3.00;;;;;;;8.16;81.56;96376.34;4376468;32;20295;-64
2021/12/14 12:48:41;;;;;;;3.13;2.93;;;;;;;8.13;80.87;96382.13;4390509;32;20347;-63